createdAt,value
2022-10-08T00:00:19.201Z,292
2022-10-08T00:05:17.865Z,292
2022-10-08T00:10:17.755Z,292
2022-10-08T00:15:17.808Z,292
2022-10-08T00:20:17.952Z,292
2022-10-08T00:25:17.742Z,315
2022-10-08T00:30:17.945Z,315
2022-10-08T00:35:17.947Z,315
2022-10-08T00:40:17.893Z,338
2022-10-08T00:45:18.019Z,338
2022-10-08T00:50:17.872Z,338
2022-10-08T00:55:17.768Z,338
2022-10-08T01:00:18.192Z,338
2022-10-08T01:05:17.832Z,338
2022-10-08T01:10:18.093Z,338
2022-10-08T01:15:18.048Z,338
2022-10-08T01:20:17.911Z,338
2022-10-08T01:25:17.979Z,338
2022-10-08T01:30:18.145Z,338
2022-10-08T01:35:17.906Z,338
2022-10-08T02:10:23.953Z,315
2022-10-08T02:15:18.412Z,315
2022-10-08T02:20:18.088Z,315
2022-10-08T02:25:18.010Z,315
2022-10-08T02:30:18.204Z,315
2022-10-08T02:35:17.974Z,315
2022-10-08T02:40:18.266Z,315
2022-10-08T02:45:18.080Z,315
2022-10-08T02:50:18.233Z,315
2022-10-08T02:55:18.026Z,315
2022-10-08T03:00:18.349Z,315
2022-10-08T03:05:18.013Z,315
2022-10-08T03:10:18.390Z,315
2022-10-08T03:15:18.203Z,315
2022-10-08T03:20:18.293Z,315
2022-10-08T03:25:18.510Z,315
2022-10-08T03:30:16.432Z,315
2022-10-08T03:35:16.402Z,315
2022-10-08T03:40:16.227Z,315
2022-10-08T03:45:16.135Z,315
2022-10-08T03:50:16.471Z,315
2022-10-08T03:55:16.147Z,315
2022-10-08T04:00:19.429Z,315
2022-10-08T04:05:17.172Z,315
2022-10-08T04:10:17.372Z,292
2022-10-08T04:15:17.228Z,292
2022-10-08T04:20:17.357Z,292
2022-10-08T04:25:17.258Z,315
2022-10-08T04:30:17.649Z,315
2022-10-08T04:35:17.528Z,315
2022-10-08T04:40:17.283Z,315
2022-10-08T04:45:17.327Z,315
2022-10-08T04:50:17.333Z,315
2022-10-08T04:55:17.344Z,292
2022-10-08T05:00:19.126Z,315
2022-10-08T05:05:17.432Z,315
2022-10-08T05:10:17.764Z,315
2022-10-08T05:15:17.398Z,292
2022-10-08T05:20:17.430Z,315
2022-10-08T05:25:17.400Z,315
2022-10-08T05:30:21.735Z,315
2022-10-08T05:35:17.311Z,315
2022-10-08T05:40:17.479Z,315
2022-10-08T05:45:17.846Z,315
2022-10-08T05:50:17.511Z,315
2022-10-08T05:55:17.533Z,315
2022-10-08T06:00:18.526Z,0
2022-10-08T06:05:17.428Z,315
2022-10-08T06:10:17.717Z,0
2022-10-08T06:15:17.475Z,315
2022-10-08T06:20:17.687Z,315
2022-10-08T06:25:17.478Z,315
2022-10-08T06:30:17.655Z,315
2022-10-08T06:35:17.465Z,315
2022-10-08T06:40:17.738Z,315
2022-10-08T06:45:17.791Z,315
2022-10-08T06:50:17.631Z,315
2022-10-08T06:55:17.837Z,315
2022-10-08T07:00:18.185Z,315
2022-10-08T07:05:17.638Z,315
2022-10-08T07:10:18.587Z,315
2022-10-08T07:15:17.644Z,315
2022-10-08T07:20:17.886Z,315
2022-10-08T07:25:17.626Z,315
2022-10-08T07:30:17.983Z,338
2022-10-08T07:35:17.558Z,315
2022-10-08T07:40:19.160Z,315
2022-10-08T07:45:17.681Z,315
2022-10-08T07:50:17.990Z,338
2022-10-08T07:55:17.699Z,338
2022-10-08T08:00:22.679Z,0
2022-10-08T08:05:17.611Z,0
2022-10-08T08:10:17.748Z,0
2022-10-08T08:15:17.993Z,338
2022-10-08T08:20:17.871Z,338
2022-10-08T08:25:17.644Z,0
2022-10-08T08:30:18.351Z,0
2022-10-08T08:35:17.869Z,0
2022-10-08T08:40:17.822Z,0
2022-10-08T08:45:41.508Z,0
2022-10-08T08:50:17.820Z,0
2022-10-08T08:55:17.998Z,0
2022-10-08T09:00:17.938Z,338
2022-10-08T09:05:17.862Z,338
2022-10-08T09:10:18.143Z,338
2022-10-08T09:15:17.864Z,0
2022-10-08T09:20:18.099Z,0
2022-10-08T09:25:17.828Z,0
2022-10-08T09:45:53.104Z,338
2022-10-08T09:50:17.988Z,0
2022-10-08T09:55:18.013Z,0
2022-10-08T10:00:19.212Z,0
2022-10-08T10:05:18.001Z,0
2022-10-08T10:10:18.001Z,0
2022-10-08T10:15:18.027Z,0
2022-10-08T10:20:18.314Z,338
2022-10-08T10:25:18.029Z,0
2022-10-08T10:30:18.245Z,0
2022-10-08T10:35:17.977Z,0
2022-10-08T10:40:18.116Z,0
2022-10-08T10:45:18.133Z,0
2022-10-08T10:50:18.278Z,0
2022-10-08T10:55:18.236Z,0
2022-10-08T11:00:18.338Z,0
2022-10-08T11:05:18.288Z,0
2022-10-08T11:10:18.117Z,0
2022-10-08T11:15:18.184Z,0
2022-10-08T11:20:18.086Z,315
2022-10-08T11:25:18.137Z,315
2022-10-08T11:30:16.446Z,315
2022-10-08T11:35:16.087Z,315
2022-10-08T11:40:16.260Z,315
2022-10-08T11:45:16.229Z,0
2022-10-08T11:50:16.263Z,0
2022-10-08T11:55:16.141Z,0
2022-10-08T12:00:17.817Z,0
2022-10-08T12:05:16.237Z,0
2022-10-08T12:10:16.464Z,0
2022-10-08T12:15:16.421Z,0
2022-10-08T12:20:16.231Z,0
2022-10-08T12:25:16.350Z,0
2022-10-08T12:30:16.479Z,0
2022-10-08T12:35:16.560Z,0
2022-10-08T12:40:16.382Z,0
2022-10-08T12:45:16.422Z,0
2022-10-08T12:50:16.541Z,0
2022-10-08T12:55:16.391Z,0
2022-10-08T13:00:16.772Z,0
2022-10-08T13:05:16.375Z,0
2022-10-08T13:10:16.513Z,0
2022-10-08T13:15:16.625Z,0
2022-10-08T13:20:16.341Z,0
2022-10-08T13:25:16.474Z,0
2022-10-08T13:30:16.717Z,0
2022-10-08T13:35:16.431Z,0
2022-10-08T13:40:16.456Z,0
2022-10-08T13:45:16.612Z,0
2022-10-08T13:50:16.548Z,0
2022-10-08T13:55:16.470Z,0
2022-10-08T14:00:17.504Z,0
2022-10-08T14:05:16.440Z,0
2022-10-08T14:10:16.478Z,0
2022-10-08T14:15:16.611Z,0
2022-10-08T14:20:17.013Z,0
2022-10-08T14:25:16.524Z,0
2022-10-08T14:30:16.638Z,0
2022-10-08T14:35:16.587Z,0
2022-10-08T14:40:16.628Z,0
2022-10-08T14:45:16.800Z,0
2022-10-08T14:50:16.581Z,0
2022-10-08T14:55:16.739Z,0
2022-10-08T15:00:16.700Z,0
2022-10-08T15:05:16.612Z,0
2022-10-08T15:10:16.634Z,0
2022-10-08T15:15:16.725Z,0
2022-10-08T15:20:16.802Z,0
2022-10-08T15:25:16.554Z,0
2022-10-08T15:30:17.605Z,0
2022-10-08T15:35:18.210Z,0
2022-10-08T15:40:16.737Z,0
2022-10-08T15:45:16.683Z,0
2022-10-08T15:50:16.740Z,22
2022-10-08T15:55:16.748Z,22
2022-10-08T16:00:17.116Z,22
2022-10-08T16:05:16.944Z,0
2022-10-08T16:10:16.802Z,22
2022-10-08T16:15:16.799Z,0
2022-10-08T16:20:16.835Z,0
2022-10-08T16:25:16.762Z,0
2022-10-08T16:30:16.883Z,0
2022-10-08T16:35:16.741Z,315
2022-10-08T16:40:17.543Z,0
2022-10-08T16:45:16.810Z,0
2022-10-08T16:50:16.923Z,0
2022-10-08T16:55:16.874Z,0
2022-10-08T17:00:17.012Z,0
2022-10-08T17:05:17.393Z,0
2022-10-08T17:10:17.027Z,0
2022-10-08T17:15:17.262Z,0
2022-10-08T17:20:16.924Z,0
2022-10-08T17:25:16.955Z,0
2022-10-08T17:30:17.023Z,0
2022-10-08T17:35:17.109Z,22
2022-10-08T17:40:16.964Z,0
2022-10-08T17:45:17.017Z,0
2022-10-08T17:50:17.344Z,0
2022-10-08T17:55:17.313Z,22
2022-10-08T18:00:18.011Z,0
2022-10-08T18:05:16.920Z,0
2022-10-08T18:10:17.031Z,0
2022-10-08T18:15:17.077Z,0
2022-10-08T18:20:17.411Z,0
2022-10-08T18:25:17.117Z,22
2022-10-08T18:30:17.506Z,22
2022-10-08T18:35:17.209Z,0
2022-10-08T18:40:17.251Z,0
2022-10-08T18:45:17.127Z,0
2022-10-08T18:50:17.229Z,0
2022-10-08T18:55:17.279Z,315
2022-10-08T19:00:17.628Z,0
2022-10-08T19:05:17.178Z,0
2022-10-08T19:10:17.257Z,0
2022-10-08T19:15:17.237Z,0
2022-10-08T19:20:17.223Z,292
2022-10-08T19:25:17.143Z,315
2022-10-08T19:30:20.311Z,248
2022-10-08T19:35:17.247Z,202
2022-10-08T19:40:17.223Z,202
2022-10-08T19:45:17.362Z,180
2022-10-08T19:50:17.275Z,180
2022-10-08T19:55:17.220Z,180
2022-10-08T20:00:17.332Z,180
2022-10-08T20:05:17.332Z,202
2022-10-08T20:10:17.374Z,180
2022-10-08T20:15:17.331Z,180
2022-10-08T20:20:32.247Z,180
2022-10-08T20:25:17.313Z,180
2022-10-08T20:30:17.559Z,180
2022-10-08T20:35:17.256Z,180
2022-10-08T20:40:17.532Z,180
2022-10-08T20:45:17.315Z,180
2022-10-08T20:50:17.507Z,180
2022-10-08T20:55:17.373Z,180
2022-10-08T21:00:17.844Z,180
2022-10-08T21:05:17.337Z,180
2022-10-08T21:10:20.023Z,202
2022-10-08T21:15:17.577Z,180
2022-10-08T21:20:17.585Z,180
2022-10-08T21:25:17.375Z,180
2022-10-08T21:30:17.573Z,202
2022-10-08T21:35:17.321Z,202
2022-10-08T21:40:17.959Z,202
2022-10-08T21:45:17.450Z,202
2022-10-08T21:50:17.706Z,202
2022-10-08T21:55:17.419Z,202
2022-10-08T22:00:18.511Z,202
2022-10-08T22:05:17.552Z,202
2022-10-08T22:10:17.564Z,202
2022-10-08T22:15:17.668Z,202
2022-10-08T22:20:17.851Z,180
2022-10-08T22:25:17.757Z,180
2022-10-08T22:30:17.887Z,202
2022-10-08T22:35:17.493Z,225
2022-10-08T22:40:17.690Z,225
2022-10-08T22:45:17.612Z,225
2022-10-08T22:50:17.704Z,225
2022-10-08T22:55:17.654Z,225
2022-10-08T23:00:17.858Z,225
2022-10-08T23:05:17.633Z,202
2022-10-08T23:10:17.636Z,202
2022-10-08T23:15:17.688Z,225
2022-10-08T23:20:17.684Z,225
2022-10-08T23:25:17.632Z,225
2022-10-08T23:30:41.721Z,225
2022-10-08T23:35:17.785Z,248
2022-10-08T23:40:18.032Z,248
2022-10-08T23:45:17.820Z,225
2022-10-08T23:50:18.410Z,248
2022-10-08T23:55:17.721Z,248
